Time;durP1;ratioP1;P1;durP2;ratioP2;P2;SDS_P1;SDS_P2;PMS_P1;PMS_P2;Temp;Humidity;BMP_temperature;BMP_pressure;BME280_temperature;BME280_humidity;BME280_pressure;Samples;Min_cycle;Max_cycle;Signal;HPM_P1;HPM_P2
2021/11/20 00:00:11;;;;;;;8.00;5.83;;;;;;;12.57;51.70;101495.77;1440146;100;21665;-63
2021/11/20 00:02:39;;;;;;;6.78;5.47;;;;;;;12.53;51.83;101486.27;1435482;100;21115;-63
2021/11/20 00:05:07;;;;;;;6.97;5.75;;;;;;;12.50;52.04;101486.34;1435633;100;21075;-56
2021/11/20 00:07:34;;;;;;;7.37;6.03;;;;;;;12.47;52.15;101483.77;1435526;100;21160;-55
2021/11/20 00:10:05;;;;;;;7.58;5.90;;;;;;;12.44;52.27;101474.70;1445530;98;21128;-59
2021/11/20 00:12:32;;;;;;;7.95;5.53;;;;;;;12.42;52.30;101473.87;1446418;99;21146;-64
2021/11/20 00:14:59;;;;;;;8.08;5.55;;;;;;;12.40;52.29;101474.78;1443236;99;21041;-56
2021/11/20 00:17:27;;;;;;;8.10;5.62;;;;;;;12.38;52.35;101475.25;1443014;99;21120;-60
2021/11/20 00:19:53;;;;;;;9.85;6.50;;;;;;;12.35;52.31;101468.33;1443138;99;21064;-56
2021/11/20 00:22:29;;;;;;;7.12;6.35;;;;;;;12.34;52.33;101470.54;1443283;99;21148;-56
2021/11/20 00:25:01;;;;;;;8.48;5.55;;;;;;;12.32;52.34;101467.09;1456013;98;21599;-59
2021/11/20 00:30:03;;;;;;;7.83;5.70;;;;;;;12.29;52.25;101474.97;1439447;100;21096;-59
2021/11/20 00:32:31;;;;;;;7.45;6.17;;;;;;;12.28;52.17;101478.91;1439201;100;21116;-59
2021/11/20 00:35:05;;;;;;;6.95;5.67;;;;;;;12.28;52.13;101477.17;1499252;94;21061;-62
2021/11/20 00:37:33;;;;;;;7.75;6.37;;;;;;;12.25;52.19;101470.69;1505825;95;21149;-55
2021/11/20 00:40:00;;;;;;;7.20;6.15;;;;;;;12.23;52.21;101471.16;1506408;94;21075;-63
2021/11/20 00:42:27;;;;;;;6.70;5.97;;;;;;;12.24;52.26;101471.59;1511225;94;21155;-56
2021/11/20 00:44:54;;;;;;;7.80;5.58;;;;;;;12.23;52.45;101465.94;1511863;93;21555;-56
2021/11/20 00:47:21;;;;;;;13.93;7.00;;;;;;;12.24;52.54;101459.85;1578380;91;21661;-56
2021/11/20 00:49:50;;;;;;;7.40;5.65;;;;;;;12.25;52.66;101460.25;1580254;91;21017;-56
2021/11/20 00:52:16;;;;;;;8.33;5.83;;;;;;;12.26;52.72;101455.00;1579652;90;21125;-60
2021/11/20 00:54:42;;;;;;;9.63;6.75;;;;;;;12.28;52.78;101457.14;1578118;91;21041;-56
2021/11/20 00:57:10;;;;;;;6.55;5.78;;;;;;;12.31;52.79;101454.92;1577932;91;21657;-55
2021/11/20 00:59:37;;;;;;;6.90;5.65;;;;;;;12.34;52.78;101457.49;1577646;91;21561;-56
2021/11/20 01:02:04;;;;;;;7.58;5.53;;;;;;;12.37;52.72;101450.89;1578060;91;21081;-55
2021/11/20 01:04:32;;;;;;;7.75;5.67;;;;;;;12.39;52.73;101447.81;1577778;91;21098;-56
2021/11/20 01:06:59;;;;;;;7.42;6.00;;;;;;;12.42;52.71;101453.00;1626289;88;21025;-54
2021/11/20 01:09:32;;;;;;;7.28;6.03;;;;;;;12.44;52.65;101448.61;1628007;88;21038;-58
2021/11/20 01:12:11;;;;;;;9.50;6.75;;;;;;;12.47;52.61;101445.92;1628965;88;21530;-60
2021/11/20 01:14:40;;;;;;;9.45;6.20;;;;;;;12.49;52.60;101444.14;1609293;89;21085;-63
2021/11/20 01:17:08;;;;;;;8.88;5.70;;;;;;;12.51;52.60;101443.67;1609451;89;21489;-54
2021/11/20 01:19:35;;;;;;;7.40;6.03;;;;;;;12.53;52.61;101441.05;1609264;89;21156;-55
2021/11/20 01:22:10;;;;;;;8.30;6.35;;;;;;;12.54;52.58;101438.41;1609473;89;21059;-59
2021/11/20 01:24:39;;;;;;;8.23;6.72;;;;;;;12.57;52.61;101437.02;1606147;89;21108;-55
2021/11/20 01:27:07;;;;;;;10.08;6.53;;;;;;;12.60;52.60;101438.72;1656771;85;21053;-58
2021/11/20 01:29:36;;;;;;;7.58;6.62;;;;;;;12.62;52.61;101427.37;1683072;85;21070;-59
2021/11/20 01:32:04;;;;;;;8.60;6.70;;;;;;;12.63;52.62;101429.07;1683378;85;21010;-58
2021/11/20 01:34:33;;;;;;;9.43;6.95;;;;;;;12.65;52.58;101423.37;1706455;84;21058;-56
2021/11/20 01:37:02;;;;;;;7.95;6.40;;;;;;;12.68;52.45;101422.46;1683218;85;21546;-57
2021/11/20 01:39:31;;;;;;;9.90;6.30;;;;;;;12.69;52.44;101415.93;1706969;84;21066;-60
2021/11/20 01:42:30;;;;;;;8.58;6.75;;;;;;;12.72;52.42;101420.20;1697596;84;21533;-58
2021/11/20 01:45:18;;;;;;;8.75;6.28;;;;;;;12.71;52.30;101418.50;1693863;84;21503;-56
2021/11/20 01:47:54;;;;;;;6.75;5.58;;;;;;;12.80;52.00;101413.07;1649092;86;21561;-56
2021/11/20 01:50:32;;;;;;;9.30;6.65;;;;;;;12.83;51.76;101407.80;1634443;88;21062;-58
2021/11/20 01:53:40;;;;;;;10.40;6.42;;;;;;;12.84;51.57;101405.15;1634585;88;20994;-60
2021/11/20 01:56:21;;;;;;;10.55;7.33;;;;;;;12.87;51.41;101406.41;1590729;90;21088;-55
2021/11/20 01:59:10;;;;;;;7.70;6.62;;;;;;;12.84;51.14;101404.28;1493383;96;21155;-55
2021/11/20 02:01:50;;;;;;;8.23;6.35;;;;;;;12.88;50.74;101406.80;1449318;99;21131;-59
2021/11/20 02:04:26;;;;;;;10.63;7.15;;;;;;;12.91;50.44;101405.89;1446764;99;21145;-55
2021/11/20 02:07:11;;;;;;;10.60;7.45;;;;;;;12.89;50.15;101408.54;1447649;99;21081;-59
2021/11/20 02:09:50;;;;;;;10.98;6.87;;;;;;;12.86;49.84;101405.98;1449391;99;21109;-59
2021/11/20 02:12:26;;;;;;;7.85;6.75;;;;;;;12.84;49.77;101404.28;1472485;97;21142;-59
2021/11/20 02:14:53;;;;;;;9.35;6.67;;;;;;;12.81;49.68;101400.00;1455105;97;21583;-62
2021/11/20 02:17:40;;;;;;;8.20;6.62;;;;;;;12.79;49.63;101403.09;1466692;97;21123;-58
2021/11/20 02:20:17;;;;;;;7.47;6.30;;;;;;;12.78;49.50;101395.27;1411122;101;21143;-59
2021/11/20 02:22:43;;;;;;;6.92;5.92;;;;;;;12.77;49.49;101395.73;1413449;101;21226;-55
2021/11/20 02:25:11;;;;;;;12.43;6.72;;;;;;;12.77;49.40;101394.88;1436089;98;21128;-58
2021/11/20 02:27:45;;;;;;;8.30;6.03;;;;;;;12.78;49.40;101389.61;1446517;99;21164;-59
2021/11/20 02:30:27;;;;;;;6.70;6.00;;;;;;;12.77;49.31;101385.30;1391038;103;21115;-59
2021/11/20 02:33:09;;;;;;;11.78;6.58;;;;;;;12.80;49.22;101387.83;1390904;103;21643;-55
2021/11/20 02:35:45;;;;;;;7.17;5.83;;;;;;;12.82;49.21;101385.17;1388585;103;21150;-59
2021/11/20 02:38:17;;;;;;;9.55;6.53;;;;;;;12.82;49.24;101386.48;1390311;103;21168;-56
2021/11/20 02:40:44;;;;;;;7.97;6.33;;;;;;;12.81;49.18;101384.34;1385161;104;21101;-58
2021/11/20 02:43:12;;;;;;;7.55;6.03;;;;;;;12.83;49.26;101388.21;1403067;100;21628;-55
2021/11/20 02:45:44;;;;;;;6.80;5.53;;;;;;;12.82;49.28;101380.81;1423930;101;21136;-59
2021/11/20 02:48:11;;;;;;;6.47;5.70;;;;;;;12.82;49.32;101379.51;1447837;98;21673;-55
2021/11/20 02:50:47;;;;;;;8.35;5.85;;;;;;;12.83;49.41;101377.33;1460825;98;21152;-55
2021/11/20 02:53:19;;;;;;;6.10;5.30;;;;;;;12.83;49.57;101381.25;1415770;101;21151;-61
2021/11/20 02:55:49;;;;;;;6.40;5.00;;;;;;;12.83;49.77;101371.23;1429809;98;21120;-59
2021/11/20 02:58:19;;;;;;;7.03;5.53;;;;;;;12.81;49.88;101373.89;1456363;98;21113;-60
2021/11/20 03:00:50;;;;;;;6.65;5.28;;;;;;;12.82;49.95;101367.76;1504082;95;21585;-59
2021/11/20 03:03:16;;;;;;;6.60;5.20;;;;;;;12.84;49.96;101368.58;1504184;95;21042;-55
2021/11/20 03:05:44;;;;;;;5.87;4.37;;;;;;;12.87;49.93;101358.09;1503788;95;21142;-55
2021/11/20 03:08:10;;;;;;;5.12;4.62;;;;;;;12.90;49.94;101360.62;1504053;95;21126;-55
2021/11/20 03:10:37;;;;;;;6.55;4.15;;;;;;;12.91;49.92;101354.52;1503887;94;21617;-55
2021/11/20 03:13:04;;;;;;;5.62;4.30;;;;;;;12.93;49.89;101359.26;1503968;95;21120;-56
2021/11/20 03:15:31;;;;;;;5.35;4.37;;;;;;;12.95;49.85;101357.91;1540749;93;21037;-59
2021/11/20 03:17:59;;;;;;;5.70;4.22;;;;;;;12.97;49.86;101361.34;1545081;93;21101;-55
2021/11/20 03:20:26;;;;;;;5.35;4.20;;;;;;;12.99;49.85;101357.81;1545388;93;21569;-59
2021/11/20 03:22:57;;;;;;;6.60;3.80;;;;;;;13.02;49.88;101356.42;1545341;93;21073;-60
2021/11/20 03:25:24;;;;;;;;;;;;;;;13.04;49.84;101350.75;1547692;93;21113;-54
2021/11/20 03:27:51;;;;;;;4.35;3.95;;;;;;;13.05;49.84;101357.71;1553946;92;20410;-56
2021/11/20 03:30:19;;;;;;;4.62;3.70;;;;;;;13.06;49.87;101356.80;1555479;92;21590;-55
2021/11/20 03:32:46;;;;;;;5.05;4.00;;;;;;;13.05;49.91;101347.27;1555661;92;21096;-59
2021/11/20 03:35:15;;;;;;;5.25;3.65;;;;;;;13.05;49.91;101355.09;1553083;92;21036;-59
2021/11/20 03:37:43;;;;;;;4.15;3.50;;;;;;;13.04;49.93;101355.98;1555595;92;21100;-60
2021/11/20 03:40:12;;;;;;;4.08;3.65;;;;;;;13.03;49.94;101354.23;1555337;91;21072;-59
2021/11/20 03:42:39;;;;;;;4.50;3.60;;;;;;;13.03;50.07;101348.15;1555549;92;21604;-58
2021/11/20 03:45:08;;;;;;;4.83;3.90;;;;;;;13.01;50.11;101345.58;1555859;92;21597;-55
2021/11/20 03:47:35;;;;;;;4.00;3.60;;;;;;;13.03;50.20;101346.84;1555931;92;21051;-55
2021/11/20 03:50:04;;;;;;;3.90;2.92;;;;;;;13.03;50.32;101342.92;1574863;90;21065;-62
2021/11/20 03:52:31;;;;;;;4.28;3.15;;;;;;;13.04;50.44;101341.61;1593397;90;21089;-59
2021/11/20 03:54:57;;;;;;;4.40;3.00;;;;;;;13.07;50.58;101336.77;1593590;90;21065;-55
2021/11/20 03:57:24;;;;;;;4.80;3.02;;;;;;;13.10;50.63;101334.54;1593693;90;21053;-60
2021/11/20 03:59:51;;;;;;;3.40;3.10;;;;;;;13.12;50.72;101328.83;1644173;87;21017;-54
2021/11/20 04:02:18;;;;;;;3.08;2.77;;;;;;;13.15;50.80;101331.39;1733958;83;21053;-58
2021/11/20 04:04:45;;;;;;;3.40;2.77;;;;;;;13.16;50.83;101325.25;1733901;81;21037;-60
2021/11/20 04:07:13;;;;;;;3.00;2.70;;;;;;;13.16;50.92;101323.50;1733657;83;21077;-61
2021/11/20 04:09:39;;;;;;;3.85;2.90;;;;;;;13.19;50.98;101325.20;1733899;82;21498;-58
2021/11/20 04:12:09;;;;;;;2.90;2.60;;;;;;;13.22;51.01;101322.49;1733657;82;21081;-55
2021/11/20 04:14:36;;;;;;;3.30;2.45;;;;;;;13.23;51.04;101325.06;1734011;83;21009;-55
2021/11/20 04:17:04;;;;;;;2.27;2.08;;;;;;;13.24;51.16;101318.95;1733565;83;21042;-56
2021/11/20 04:19:33;;;;;;;5.72;2.80;;;;;;;13.27;51.20;101323.26;1733541;83;21104;-59
2021/11/20 04:22:00;;;;;;;3.37;2.45;;;;;;;13.28;51.21;101323.66;1733800;83;21003;-62
2021/11/20 04:24:28;;;;;;;2.70;2.45;;;;;;;13.28;51.23;101320.60;1733615;83;21034;-61
2021/11/20 04:27:06;;;;;;;4.58;2.50;;;;;;;13.30;51.29;101327.09;1733819;82;21049;-59
2021/11/20 04:29:38;;;;;;;2.47;2.27;;;;;;;13.32;51.29;101321.37;1683075;85;21003;-59
2021/11/20 04:32:06;;;;;;;3.25;2.85;;;;;;;13.31;51.31;101320.55;1682851;85;21531;-61
2021/11/20 04:34:33;;;;;;;3.00;2.52;;;;;;;13.32;51.31;101323.99;1683165;85;21038;-61
2021/11/20 04:37:00;;;;;;;3.75;2.42;;;;;;;13.33;51.36;101325.72;1683111;85;21034;-61
2021/11/20 04:39:27;;;;;;;2.40;2.20;;;;;;;13.33;51.40;101328.34;1683121;85;21071;-60
2021/11/20 04:41:53;;;;;;;2.33;2.12;;;;;;;13.34;51.42;101323.50;1683190;85;21015;-61
2021/11/20 04:44:21;;;;;;;3.77;2.50;;;;;;;13.33;51.50;101317.88;1683192;85;21013;-54
2021/11/20 04:46:48;;;;;;;2.47;1.95;;;;;;;13.34;51.54;101319.14;1683078;85;21021;-59
2021/11/20 04:49:16;;;;;;;2.92;2.17;;;;;;;13.37;51.58;101327.37;1678617;85;21160;-56
2021/11/20 04:51:44;;;;;;;3.35;2.60;;;;;;;13.35;51.76;101321.31;1632894;85;21058;-61
2021/11/20 04:54:10;;;;;;;2.95;2.30;;;;;;;13.35;52.10;101321.31;1678408;85;21070;-59
2021/11/20 04:56:38;;;;;;;2.77;2.50;;;;;;;13.34;52.48;101322.20;1678463;85;21094;-59
2021/11/20 04:59:04;;;;;;;3.37;2.30;;;;;;;13.37;52.71;101323.45;1678470;85;21093;-60
2021/11/20 05:01:31;;;;;;;2.75;2.35;;;;;;;13.39;52.80;101326.88;1678425;85;21041;-59
2021/11/20 05:04:00;;;;;;;2.85;2.65;;;;;;;13.39;52.84;101312.50;1678330;85;21079;-56
2021/11/20 05:06:27;;;;;;;3.15;2.60;;;;;;;13.38;52.92;101313.38;1632617;85;21541;-59
2021/11/20 05:08:59;;;;;;;4.05;2.85;;;;;;;13.38;52.94;101314.69;1678180;85;21043;-58
2021/11/20 05:11:31;;;;;;;3.98;2.80;;;;;;;13.39;53.01;101313.38;1678585;85;21014;-60
2021/11/20 05:13:58;;;;;;;4.17;2.60;;;;;;;13.40;53.12;101305.05;1683136;85;21026;-57
2021/11/20 05:16:27;;;;;;;4.78;3.27;;;;;;;13.40;53.28;101301.14;1683265;84;21014;-61
2021/11/20 05:18:54;;;;;;;3.22;2.58;;;;;;;13.43;53.49;101305.00;1683070;85;21070;-56
2021/11/20 05:21:28;;;;;;;3.05;2.75;;;;;;;13.44;53.71;101307.56;1676816;85;21089;-55
2021/11/20 05:23:55;;;;;;;3.72;2.90;;;;;;;13.44;53.90;101301.03;1683171;85;21518;-56
2021/11/20 05:26:22;;;;;;;3.22;2.70;;;;;;;13.46;54.06;101303.59;1710595;83;21041;-56
2021/11/20 05:28:59;;;;;;;3.02;2.80;;;;;;;13.47;54.14;101309.25;1731340;83;21030;-59
2021/11/20 05:31:21;;;;;;;6.55;3.37;;;;;;;13.47;54.25;101314.04;1731106;83;21030;-58
2021/11/20 05:33:51;;;;;;;5.80;3.08;;;;;;;13.48;54.32;101317.48;1733898;83;21017;-60
2021/11/20 05:36:20;;;;;;;3.00;2.70;;;;;;;13.50;54.40;101316.56;1733938;83;21002;-59
2021/11/20 05:38:47;;;;;;;3.52;3.20;;;;;;;13.52;54.42;101313.90;1733644;83;21078;-63
2021/11/20 05:41:14;;;;;;;3.35;3.05;;;;;;;13.52;54.50;101320.00;1734080;83;21014;-60
2021/11/20 05:43:46;;;;;;;3.20;2.90;;;;;;;13.54;54.59;101323.91;1734320;83;21502;-60
2021/11/20 05:46:17;;;;;;;3.58;2.72;;;;;;;13.57;54.65;101330.34;1731035;83;21046;-55
2021/11/20 05:48:44;;;;;;;3.52;3.22;;;;;;;13.58;54.68;101326.85;1734784;82;21014;-57
2021/11/20 05:51:11;;;;;;;4.83;2.87;;;;;;;13.61;54.72;101325.45;1733993;83;21069;-59
2021/11/20 05:53:38;;;;;;;3.47;3.02;;;;;;;13.63;54.73;101322.34;1734344;83;20986;-59
2021/11/20 05:56:06;;;;;;;3.62;3.00;;;;;;;13.65;54.76;101328.40;1734129;83;21085;-60
2021/11/20 05:58:35;;;;;;;3.65;2.87;;;;;;;13.70;54.79;101327.84;1731631;83;21017;-59
2021/11/20 06:01:12;;;;;;;4.22;3.08;;;;;;;13.72;54.84;101329.97;1734200;83;21089;-59
2021/11/20 06:03:39;;;;;;;4.20;3.12;;;;;;;13.75;54.84;101329.88;1734300;83;21001;-59
2021/11/20 06:06:05;;;;;;;5.25;3.05;;;;;;;13.78;54.87;101329.81;1734154;83;21549;-56
2021/11/20 06:08:33;;;;;;;3.30;2.87;;;;;;;13.81;54.86;101330.59;1734326;83;21510;-56
2021/11/20 06:11:02;;;;;;;5.17;3.05;;;;;;;13.85;54.76;101331.35;1734385;83;21525;-63
2021/11/20 06:13:30;;;;;;;3.75;2.70;;;;;;;13.87;54.70;101335.66;1734413;83;20997;-61
2021/11/20 06:15:58;;;;;;;4.00;3.60;;;;;;;13.89;54.75;101332.55;1731701;83;21033;-56
2021/11/20 06:18:26;;;;;;;3.27;2.98;;;;;;;13.92;54.74;101335.54;1715477;83;21045;-58
2021/11/20 06:20:55;;;;;;;3.72;2.90;;;;;;;13.95;54.85;101344.59;1746499;80;20987;-55
2021/11/20 06:23:23;;;;;;;3.40;3.10;;;;;;;13.97;54.96;101347.20;1746275;81;21454;-56
2021/11/20 06:25:50;;;;;;;5.72;3.45;;;;;;;13.96;55.05;101348.95;1738771;81;20995;-58
2021/11/20 06:28:17;;;;;;;3.60;2.87;;;;;;;13.97;55.18;101343.28;1743602;81;21004;-59
2021/11/20 06:30:46;;;;;;;3.58;2.95;;;;;;;13.97;55.22;101344.14;1736212;81;21062;-59
2021/11/20 06:33:14;;;;;;;3.40;2.85;;;;;;;13.99;55.32;101351.95;1699604;84;21538;-59
2021/11/20 06:35:58;;;;;;;4.05;3.27;;;;;;;14.01;55.35;101351.02;1735132;81;21003;-58
2021/11/20 06:38:27;;;;;;;4.03;3.60;;;;;;;14.03;55.42;101351.83;1700607;84;20971;-58
2021/11/20 06:40:55;;;;;;;3.67;3.20;;;;;;;14.03;55.49;101354.45;1711427;84;20990;-59
2021/11/20 06:43:24;;;;;;;4.42;3.77;;;;;;;14.05;55.56;101359.19;1702018;84;20951;-58
2021/11/20 06:45:55;;;;;;;3.55;3.25;;;;;;;14.08;55.55;101362.15;1730472;81;21495;-59
2021/11/20 06:48:22;;;;;;;3.80;3.27;;;;;;;14.09;55.59;101356.90;1741895;81;21075;-58
2021/11/20 06:50:51;;;;;;;4.67;3.25;;;;;;;14.12;55.58;101348.95;1699563;83;21011;-58
2021/11/20 06:53:37;;;;;;;4.65;3.08;;;;;;;14.16;55.62;101361.49;1711753;83;21013;-58
2021/11/20 07:01:16;;;;;;;3.50;3.05;;;;;;;14.21;55.58;101360.94;1677515;85;21068;-58
2021/11/20 07:03:59;;;;;;;4.20;3.20;;;;;;;14.23;55.64;101360.00;1674172;84;20985;-59
2021/11/20 07:06:34;;;;;;;3.55;3.22;;;;;;;14.27;55.66;101358.15;1681769;85;21160;-59
2021/11/20 07:09:01;;;;;;;3.20;2.90;;;;;;;14.30;55.66;101360.26;1595208;89;21074;-59
2021/11/20 07:11:29;;;;;;;4.08;2.90;;;;;;;14.35;55.68;101352.28;1588956;89;21164;-59
2021/11/20 07:13:56;;;;;;;3.72;3.15;;;;;;;14.40;55.64;101362.19;1589370;89;21065;-59
2021/11/20 07:16:25;;;;;;;2.75;2.47;;;;;;;14.44;55.58;101363.82;1595507;89;21090;-59
2021/11/20 07:18:53;;;;;;;4.03;2.60;;;;;;;14.47;55.55;101361.97;1588711;89;21554;-60
2021/11/20 07:21:38;;;;;;;3.02;2.80;;;;;;;14.50;55.49;101350.56;1588146;89;21070;-59
2021/11/20 07:24:15;;;;;;;2.60;2.40;;;;;;;14.53;55.49;101359.17;1592404;89;21202;-59
2021/11/20 07:26:42;;;;;;;4.60;2.55;;;;;;;14.58;55.48;101354.68;1591792;89;21137;-60
2021/11/20 07:29:10;;;;;;;3.90;3.30;;;;;;;14.61;55.49;101358.50;1593267;89;21142;-59
2021/11/20 07:31:55;;;;;;;2.65;2.45;;;;;;;14.65;55.41;101358.82;1585470;89;21574;-58
2021/11/20 07:34:22;;;;;;;4.40;2.65;;;;;;;14.69;55.38;101356.52;1617156;88;20996;-58
2021/11/20 07:36:49;;;;;;;4.05;2.62;;;;;;;14.73;55.33;101366.92;1579770;89;21122;-60
2021/11/20 07:39:16;;;;;;;3.60;2.35;;;;;;;14.74;55.30;101364.25;1582930;89;21130;-59
2021/11/20 07:41:43;;;;;;;4.08;2.60;;;;;;;14.78;55.29;101363.70;1577127;89;21029;-55
2021/11/20 07:44:10;;;;;;;2.67;2.47;;;;;;;14.80;55.27;101365.82;1558280;91;21009;-56
2021/11/20 07:46:38;;;;;;;2.58;2.00;;;;;;;14.85;55.20;101373.11;1567295;89;21114;-64
2021/11/20 07:49:05;;;;;;;2.50;2.30;;;;;;;14.87;55.16;101372.61;1568148;90;21118;-56
2021/11/20 07:51:35;;;;;;;2.85;2.25;;;;;;;14.90;55.03;101369.44;1557348;90;21106;-60
2021/11/20 07:54:04;;;;;;;2.58;2.37;;;;;;;14.94;54.91;101362.37;1579797;90;21022;-59
2021/11/20 07:56:30;;;;;;;2.40;2.20;;;;;;;14.99;54.88;101360.45;1575624;90;21482;-58
2021/11/20 07:58:59;;;;;;;2.70;2.22;;;;;;;15.02;54.73;101372.17;1633065;87;21058;-59
2021/11/20 08:01:26;;;;;;;3.52;1.75;;;;;;;15.07;54.58;101368.94;1629765;87;21069;-59
2021/11/20 08:03:53;;;;;;;8.53;1.70;;;;;;;15.12;54.39;101363.12;1628140;87;21550;-59
2021/11/20 08:06:38;;;;;;;2.55;1.80;;;;;;;15.16;54.23;101372.60;1719472;82;20976;-59
2021/11/20 08:09:18;;;;;;;1.92;1.65;;;;;;;15.21;53.96;101370.67;1735116;82;21031;-58
2021/11/20 08:11:47;;;;;;;2.85;1.45;;;;;;;15.26;53.68;101366.16;1702353;83;21455;-59
2021/11/20 08:14:17;;;;;;;1.82;1.40;;;;;;;15.33;53.30;101368.53;1703909;83;21054;-58
2021/11/20 08:17:03;;;;;;;1.37;1.25;;;;;;;15.39;52.85;101372.75;1727782;82;20999;-62
2021/11/20 08:19:51;;;;;;;1.40;1.27;;;;;;;15.46;52.46;101364.66;1711693;82;21089;-56
2021/11/20 08:22:31;;;;;;;2.22;1.50;;;;;;;15.54;52.12;101365.72;1683897;84;21114;-59
2021/11/20 08:24:58;;;;;;;2.15;1.70;;;;;;;15.59;51.70;101366.44;1682607;85;21090;-59
2021/11/20 08:27:25;;;;;;;2.00;1.42;;;;;;;15.64;51.34;101364.50;1683448;84;21038;-65
2021/11/20 08:29:56;;;;;;;1.80;1.32;;;;;;;15.70;50.94;101369.58;1675785;85;21001;-56
2021/11/20 08:32:26;;;;;;;2.05;1.55;;;;;;;15.75;50.68;101364.16;1674898;84;21008;-53
2021/11/20 08:34:56;;;;;;;1.55;1.35;;;;;;;15.78;50.50;101361.00;1549779;92;21562;-58
2021/11/20 08:37:27;;;;;;;1.85;1.47;;;;;;;15.83;50.33;101366.06;1500003;94;21636;-57
2021/11/20 08:39:58;;;;;;;1.90;1.20;;;;;;;15.86;50.06;101360.28;1499094;95;21110;-59
2021/11/20 08:42:26;;;;;;;1.90;1.62;;;;;;;15.91;49.78;101367.53;1501530;94;21140;-57
2021/11/20 08:44:53;;;;;;;2.40;1.72;;;;;;;15.96;49.44;101352.94;1499602;95;21124;-59
2021/11/20 08:47:22;;;;;;;3.05;1.10;;;;;;;15.99;49.20;101357.62;1503541;95;21082;-60
2021/11/20 08:49:48;;;;;;;3.02;1.90;;;;;;;16.04;49.05;101357.02;1500233;94;21620;-59
2021/11/20 08:52:16;;;;;;;1.95;1.57;;;;;;;16.08;48.79;101359.95;1525279;94;21049;-59
2021/11/20 08:54:45;;;;;;;2.08;1.80;;;;;;;16.11;48.52;101350.66;1528294;94;21683;-61
2021/11/20 08:57:11;;;;;;;2.30;1.82;;;;;;;16.15;48.36;101347.02;1528462;94;21044;-59
2021/11/20 08:59:41;;;;;;;2.80;1.72;;;;;;;16.18;48.23;101341.64;1574972;90;21084;-61
2021/11/20 09:02:26;;;;;;;2.50;1.60;;;;;;;16.22;48.04;101339.30;1577692;91;21068;-56
2021/11/20 09:05:06;;;;;;;2.45;1.70;;;;;;;16.26;47.85;101338.73;1537206;93;21122;-56
2021/11/20 09:07:55;;;;;;;5.87;3.60;;;;;;;16.29;47.69;101331.63;1497610;96;21141;-59
2021/11/20 09:10:39;;;;;;;6.45;3.62;;;;;;;16.32;47.67;101331.98;1408800;100;21123;-58
2021/11/20 09:13:17;;;;;;;6.50;4.08;;;;;;;16.35;47.55;101332.30;1420461;100;21139;-56
2021/11/20 09:15:59;;;;;;;4.17;3.50;;;;;;;16.40;47.32;101336.94;1416034;99;21695;-60
2021/11/20 09:18:30;;;;;;;3.70;2.77;;;;;;;16.43;47.30;101327.62;1369938;105;21687;-59
2021/11/20 09:20:59;;;;;;;2.30;2.05;;;;;;;16.45;47.14;101327.10;1368174;103;21170;-58
2021/11/20 09:23:46;;;;;;;2.08;1.80;;;;;;;16.48;47.14;101328.32;1366280;103;21639;-60
2021/11/20 09:26:32;;;;;;;2.10;1.70;;;;;;;16.50;47.10;101308.14;1365474;104;21144;-59
2021/11/20 09:29:01;;;;;;;4.62;2.90;;;;;;;16.53;47.03;101313.26;1365007;104;21188;-59
2021/11/20 09:31:29;;;;;;;9.00;3.87;;;;;;;16.57;46.95;101312.27;1365930;105;21155;-56
2021/11/20 09:33:58;;;;;;;3.60;2.30;;;;;;;16.59;46.86;101307.33;1347935;105;21138;-59
2021/11/20 09:36:26;;;;;;;3.02;2.17;;;;;;;16.62;46.78;101307.67;1340807;106;21191;-59
2021/11/20 09:39:09;;;;;;;3.25;2.17;;;;;;;16.67;46.62;101303.12;1368287;105;21797;-59
2021/11/20 09:42:04;;;;;;;14.43;10.40;;;;;;;16.71;46.54;101298.14;1345881;105;21275;-58
2021/11/20 09:44:37;;;;;;;2.85;2.60;;;;;;;16.74;46.33;101300.63;1338143;106;21171;-58
2021/11/20 09:47:14;;;;;;;3.05;2.20;;;;;;;16.79;46.19;101302.64;1339128;107;21257;-61
2021/11/20 09:49:49;;;;;;;2.80;2.00;;;;;;;16.81;46.12;101283.73;1322833;108;21681;-58
2021/11/20 09:52:17;;;;;;;2.10;1.55;;;;;;;16.84;46.08;101282.28;1329547;106;21686;-58
2021/11/20 09:54:45;;;;;;;5.12;1.80;;;;;;;16.87;46.00;101272.97;1333014;106;21099;-59
2021/11/20 09:57:17;;;;;;;2.27;1.47;;;;;;;16.91;45.96;101274.56;1325761;104;21148;-59
2021/11/20 10:00:15;;;;;;;4.87;2.22;;;;;;;16.92;45.75;101264.42;1380968;102;21123;-58
2021/11/20 10:03:01;;;;;;;3.15;1.75;;;;;;;16.95;45.64;101259.92;1384602;102;21113;-59
2021/11/20 10:05:38;;;;;;;4.90;2.47;;;;;;;16.97;45.56;101263.80;1384878;103;21179;-57
2021/11/20 10:08:16;;;;;;;7.33;2.85;;;;;;;17.00;45.55;101263.70;1427973;99;21119;-58
2021/11/20 10:10:49;;;;;;;2.60;2.35;;;;;;;17.02;45.43;101267.12;1415836;101;21125;-59
2021/11/20 10:13:28;;;;;;;4.12;3.20;;;;;;;17.02;45.31;101260.06;1436906;98;21142;-59
2021/11/20 10:16:07;;;;;;;5.28;3.27;;;;;;;17.05;45.06;101260.41;1435718;99;21125;-59
2021/11/20 10:18:55;;;;;;;2.77;2.00;;;;;;;17.06;44.95;101255.55;1407651;100;21112;-58
2021/11/20 10:21:42;;;;;;;2.50;1.75;;;;;;;17.06;44.80;101246.36;1418084;100;21183;-57
2021/11/20 10:24:19;;;;;;;2.87;1.40;;;;;;;17.05;44.83;101249.44;1415300;100;21125;-58
2021/11/20 10:27:22;;;;;;;2.00;1.50;;;;;;;17.05;44.46;101247.25;1414098;100;21132;-54
2021/11/20 10:30:24;;;;;;;4.03;1.55;;;;;;;17.05;44.23;101248.13;1413024;100;21131;-54
2021/11/20 10:33:13;;;;;;;2.42;1.55;;;;;;;17.02;44.02;101234.25;1421667;99;21112;-58
2021/11/20 10:36:04;;;;;;;3.42;2.02;;;;;;;16.99;43.96;101251.00;1416841;100;21588;-57
2021/11/20 10:38:37;;;;;;;1.37;1.20;;;;;;;16.96;43.90;101245.02;1420795;96;21140;-53
2021/11/20 10:41:21;;;;;;;3.37;1.75;;;;;;;16.89;44.14;101243.54;1457153;98;21110;-59
2021/11/20 10:43:56;;;;;;;2.35;1.70;;;;;;;16.85;44.23;101239.32;1398158;101;21301;-60
2021/11/20 10:46:37;;;;;;;1.92;1.70;;;;;;;16.84;44.27;101245.48;1408814;99;21249;-53
2021/11/20 10:49:56;;;;;;;1.60;1.50;;;;;;;16.81;44.29;101235.97;1410057;101;21546;-63
2021/11/20 10:52:59;;;;;;;1.95;1.70;;;;;;;16.79;44.38;101239.56;1397954;102;21648;-56
2021/11/20 10:55:44;;;;;;;2.30;1.60;;;;;;;16.78;44.63;101236.52;1402951;101;21158;-57
2021/11/20 10:58:49;;;;;;;3.65;1.95;;;;;;;16.76;44.81;101250.18;1421755;100;21089;-56
2021/11/20 11:01:39;;;;;;;3.92;2.62;;;;;;;16.74;44.90;101238.88;1419834;100;21173;-56
2021/11/20 11:04:26;;;;;;;5.60;3.15;;;;;;;16.76;45.14;101238.36;1418132;100;21203;-55
2021/11/20 11:07:10;;;;;;;3.67;2.30;;;;;;;16.78;45.27;101237.84;1433382;97;21163;-59
2021/11/20 11:09:44;;;;;;;5.72;2.20;;;;;;;16.79;45.47;101236.48;1435918;99;21111;-55
2021/11/20 11:12:23;;;;;;;6.30;2.75;;;;;;;16.81;45.58;101245.62;1444461;98;21086;-54
2021/11/20 11:15:10;;;;;;;3.45;2.55;;;;;;;16.82;45.67;101231.09;1441089;98;21606;-58
2021/11/20 11:18:15;;;;;;;5.70;2.70;;;;;;;16.84;45.80;101234.96;1463787;97;21134;-58
2021/11/20 11:21:08;;;;;;;3.72;2.67;;;;;;;16.86;45.82;101230.50;1462389;96;21160;-58
2021/11/20 11:23:58;;;;;;;2.90;2.30;;;;;;;16.90;45.97;101233.41;1464790;96;21662;-56
2021/11/20 11:26:28;;;;;;;3.42;2.80;;;;;;;16.93;45.85;101236.79;1468514;96;21740;-58
2021/11/20 11:29:15;;;;;;;3.85;3.15;;;;;;;16.96;45.87;101229.25;1452100;96;21045;-58
2021/11/20 11:31:44;;;;;;;4.03;2.90;;;;;;;16.98;45.91;101219.52;1456952;96;21680;-56
2021/11/20 11:34:33;;;;;;;4.80;2.55;;;;;;;17.01;45.93;101212.80;1521069;93;21522;-59
2021/11/20 11:37:48;;;;;;;4.17;2.15;;;;;;;17.03;45.84;101205.26;1488287;95;21623;-56
2021/11/20 11:40:45;;;;;;;2.90;2.10;;;;;;;17.08;45.83;101205.08;1490487;95;21053;-55
2021/11/20 11:43:47;;;;;;;2.15;1.90;;;;;;;17.09;45.88;101197.57;1510375;92;21140;-57
2021/11/20 11:46:26;;;;;;;3.52;2.20;;;;;;;17.13;45.85;101210.98;1540520;89;21074;-55
2021/11/20 11:49:43;;;;;;;2.95;1.70;;;;;;;17.17;45.89;101198.55;1590063;87;21129;-57
2021/11/20 11:52:30;;;;;;;3.10;2.47;;;;;;;17.23;45.91;101202.27;1629166;86;21585;-58
2021/11/20 11:55:32;;;;;;;4.17;2.87;;;;;;;17.30;45.88;101194.05;1631512;86;21411;-56
2021/11/20 11:58:30;;;;;;;4.22;3.15;;;;;;;17.37;45.62;101196.80;1627838;86;21057;-58
2021/11/20 12:01:14;;;;;;;6.55;3.60;;;;;;;17.41;45.39;101193.14;1618263;86;21095;-58